sensor_id;sensor_type;location;lat;lon;timestamp;P1;durP1;ratioP1;P2;durP2;ratioP2
49378;SDS011;35254;47.990;-1.608;2023-05-20T00:00:49;3.17;;;2.03;;
49378;SDS011;35254;47.990;-1.608;2023-05-20T00:03:15;5.55;;;2.40;;
49378;SDS011;35254;47.990;-1.608;2023-05-20T00:05:41;3.88;;;2.10;;
49378;SDS011;35254;47.990;-1.608;2023-05-20T00:08:07;7.57;;;2.50;;
49378;SDS011;35254;47.990;-1.608;2023-05-20T00:10:36;8.77;;;2.75;;
49378;SDS011;35254;47.990;-1.608;2023-05-20T00:13:02;5.85;;;1.98;;
49378;SDS011;35254;47.990;-1.608;2023-05-20T00:15:28;4.90;;;2.40;;
49378;SDS011;35254;47.990;-1.608;2023-05-20T00:17:54;4.10;;;1.83;;
49378;SDS011;35254;47.990;-1.608;2023-05-20T00:20:20;5.30;;;2.72;;
49378;SDS011;35254;47.990;-1.608;2023-05-20T00:22:46;3.45;;;1.88;;
49378;SDS011;35254;47.990;-1.608;2023-05-20T00:25:11;4.35;;;2.10;;
49378;SDS011;35254;47.990;-1.608;2023-05-20T00:27:39;3.95;;;2.22;;
49378;SDS011;35254;47.990;-1.608;2023-05-20T00:30:05;6.55;;;2.60;;
49378;SDS011;35254;47.990;-1.608;2023-05-20T00:32:31;3.65;;;2.45;;
49378;SDS011;35254;47.990;-1.608;2023-05-20T00:34:57;4.40;;;2.05;;
49378;SDS011;35254;47.990;-1.608;2023-05-20T00:37:24;5.40;;;2.03;;
49378;SDS011;35254;47.990;-1.608;2023-05-20T00:39:50;4.00;;;1.70;;
49378;SDS011;35254;47.990;-1.608;2023-05-20T00:42:22;3.63;;;2.20;;
49378;SDS011;35254;47.990;-1.608;2023-05-20T00:44:51;4.25;;;2.25;;
49378;SDS011;35254;47.990;-1.608;2023-05-20T00:47:18;3.92;;;2.47;;
49378;SDS011;35254;47.990;-1.608;2023-05-20T00:49:50;4.75;;;2.50;;
49378;SDS011;35254;47.990;-1.608;2023-05-20T00:52:16;4.50;;;2.17;;
49378;SDS011;35254;47.990;-1.608;2023-05-20T00:54:42;4.45;;;2.40;;
49378;SDS011;35254;47.990;-1.608;2023-05-20T00:57:09;5.90;;;2.20;;
49378;SDS011;35254;47.990;-1.608;2023-05-20T00:59:35;4.75;;;2.33;;
49378;SDS011;35254;47.990;-1.608;2023-05-20T01:02:02;2.42;;;1.95;;
49378;SDS011;35254;47.990;-1.608;2023-05-20T01:04:29;2.97;;;2.17;;
49378;SDS011;35254;47.990;-1.608;2023-05-20T01:06:55;3.42;;;2.30;;
49378;SDS011;35254;47.990;-1.608;2023-05-20T01:09:22;4.60;;;2.10;;
49378;SDS011;35254;47.990;-1.608;2023-05-20T01:11:55;4.30;;;2.67;;
49378;SDS011;35254;47.990;-1.608;2023-05-20T01:14:36;5.20;;;2.40;;
49378;SDS011;35254;47.990;-1.608;2023-05-20T01:17:10;2.65;;;1.95;;
49378;SDS011;35254;47.990;-1.608;2023-05-20T01:19:38;4.72;;;1.98;;
49378;SDS011;35254;47.990;-1.608;2023-05-20T01:22:10;4.18;;;2.10;;
49378;SDS011;35254;47.990;-1.608;2023-05-20T01:24:43;3.42;;;2.42;;
49378;SDS011;35254;47.990;-1.608;2023-05-20T01:27:12;5.38;;;2.20;;
49378;SDS011;35254;47.990;-1.608;2023-05-20T01:29:39;5.40;;;2.50;;
49378;SDS011;35254;47.990;-1.608;2023-05-20T01:32:05;5.80;;;2.30;;
49378;SDS011;35254;47.990;-1.608;2023-05-20T01:34:35;4.32;;;2.40;;
49378;SDS011;35254;47.990;-1.608;2023-05-20T01:37:03;3.03;;;1.60;;
49378;SDS011;35254;47.990;-1.608;2023-05-20T01:39:30;6.07;;;2.30;;
49378;SDS011;35254;47.990;-1.608;2023-05-20T01:42:00;3.33;;;2.55;;
49378;SDS011;35254;47.990;-1.608;2023-05-20T01:44:27;5.30;;;2.17;;
49378;SDS011;35254;47.990;-1.608;2023-05-20T01:46:53;5.80;;;2.35;;
49378;SDS011;35254;47.990;-1.608;2023-05-20T01:49:19;7.30;;;2.92;;
49378;SDS011;35254;47.990;-1.608;2023-05-20T01:51:45;3.20;;;2.20;;
49378;SDS011;35254;47.990;-1.608;2023-05-20T01:54:10;3.15;;;2.00;;
49378;SDS011;35254;47.990;-1.608;2023-05-20T01:56:36;4.03;;;2.65;;
49378;SDS011;35254;47.990;-1.608;2023-05-20T01:59:01;8.60;;;2.50;;
49378;SDS011;35254;47.990;-1.608;2023-05-20T02:01:27;4.22;;;2.17;;
49378;SDS011;35254;47.990;-1.608;2023-05-20T02:03:53;3.65;;;2.13;;
49378;SDS011;35254;47.990;-1.608;2023-05-20T02:06:18;4.40;;;2.03;;
49378;SDS011;35254;47.990;-1.608;2023-05-20T02:08:44;2.58;;;2.05;;
49378;SDS011;35254;47.990;-1.608;2023-05-20T02:11:09;5.93;;;2.75;;
49378;SDS011;35254;47.990;-1.608;2023-05-20T02:13:35;8.02;;;2.53;;
49378;SDS011;35254;47.990;-1.608;2023-05-20T02:16:01;6.00;;;3.60;;
49378;SDS011;35254;47.990;-1.608;2023-05-20T02:18:26;3.75;;;2.50;;
49378;SDS011;35254;47.990;-1.608;2023-05-20T02:20:53;5.88;;;3.08;;
49378;SDS011;35254;47.990;-1.608;2023-05-20T02:23:18;2.72;;;1.83;;
49378;SDS011;35254;47.990;-1.608;2023-05-20T02:25:44;4.38;;;2.67;;
49378;SDS011;35254;47.990;-1.608;2023-05-20T02:28:10;5.40;;;2.63;;
49378;SDS011;35254;47.990;-1.608;2023-05-20T02:30:36;3.35;;;2.13;;
49378;SDS011;35254;47.990;-1.608;2023-05-20T02:33:03;8.85;;;2.25;;
49378;SDS011;35254;47.990;-1.608;2023-05-20T02:35:28;4.68;;;2.55;;
49378;SDS011;35254;47.990;-1.608;2023-05-20T02:37:54;5.55;;;2.45;;
49378;SDS011;35254;47.990;-1.608;2023-05-20T02:40:20;4.20;;;2.60;;
49378;SDS011;35254;47.990;-1.608;2023-05-20T02:42:46;6.63;;;2.35;;
49378;SDS011;35254;47.990;-1.608;2023-05-20T02:45:12;4.15;;;2.30;;
49378;SDS011;35254;47.990;-1.608;2023-05-20T02:47:38;3.17;;;2.75;;
49378;SDS011;35254;47.990;-1.608;2023-05-20T02:50:04;6.07;;;2.30;;
49378;SDS011;35254;47.990;-1.608;2023-05-20T02:52:30;3.70;;;2.22;;
49378;SDS011;35254;47.990;-1.608;2023-05-20T02:54:57;7.53;;;2.22;;
49378;SDS011;35254;47.990;-1.608;2023-05-20T02:57:22;3.63;;;2.17;;
49378;SDS011;35254;47.990;-1.608;2023-05-20T02:59:48;3.33;;;2.15;;
49378;SDS011;35254;47.990;-1.608;2023-05-20T03:02:14;3.80;;;2.28;;
49378;SDS011;35254;47.990;-1.608;2023-05-20T03:04:39;5.45;;;2.70;;
49378;SDS011;35254;47.990;-1.608;2023-05-20T03:07:05;5.57;;;2.50;;
49378;SDS011;35254;47.990;-1.608;2023-05-20T03:09:33;5.72;;;2.72;;
49378;SDS011;35254;47.990;-1.608;2023-05-20T03:11:59;7.50;;;2.80;;
49378;SDS011;35254;47.990;-1.608;2023-05-20T03:14:25;3.58;;;2.45;;
49378;SDS011;35254;47.990;-1.608;2023-05-20T03:16:50;4.03;;;2.90;;
49378;SDS011;35254;47.990;-1.608;2023-05-20T03:19:19;4.55;;;2.63;;
49378;SDS011;35254;47.990;-1.608;2023-05-20T03:21:44;3.90;;;2.60;;
49378;SDS011;35254;47.990;-1.608;2023-05-20T03:24:10;5.55;;;2.75;;
49378;SDS011;35254;47.990;-1.608;2023-05-20T03:26:36;8.38;;;2.95;;
49378;SDS011;35254;47.990;-1.608;2023-05-20T03:29:06;5.53;;;3.15;;
49378;SDS011;35254;47.990;-1.608;2023-05-20T03:31:32;3.85;;;2.65;;
49378;SDS011;35254;47.990;-1.608;2023-05-20T03:33:58;5.32;;;3.05;;
49378;SDS011;35254;47.990;-1.608;2023-05-20T03:36:24;4.22;;;2.78;;
49378;SDS011;35254;47.990;-1.608;2023-05-20T03:38:49;4.38;;;2.95;;
49378;SDS011;35254;47.990;-1.608;2023-05-20T03:41:15;10.07;;;3.17;;
49378;SDS011;35254;47.990;-1.608;2023-05-20T03:43:41;6.85;;;3.15;;
49378;SDS011;35254;47.990;-1.608;2023-05-20T03:46:06;6.07;;;3.50;;
49378;SDS011;35254;47.990;-1.608;2023-05-20T03:48:32;3.03;;;2.58;;
49378;SDS011;35254;47.990;-1.608;2023-05-20T03:50:57;4.82;;;2.97;;
49378;SDS011;35254;47.990;-1.608;2023-05-20T03:53:23;3.53;;;3.10;;
49378;SDS011;35254;47.990;-1.608;2023-05-20T03:55:49;5.28;;;3.10;;
49378;SDS011;35254;47.990;-1.608;2023-05-20T03:58:14;7.22;;;3.20;;
49378;SDS011;35254;47.990;-1.608;2023-05-20T04:00:40;6.28;;;3.42;;
49378;SDS011;35254;47.990;-1.608;2023-05-20T04:03:06;4.60;;;3.38;;
49378;SDS011;35254;47.990;-1.608;2023-05-20T04:05:32;8.02;;;2.75;;
49378;SDS011;35254;47.990;-1.608;2023-05-20T04:07:58;7.20;;;3.33;;
49378;SDS011;35254;47.990;-1.608;2023-05-20T04:10:24;7.40;;;3.40;;
49378;SDS011;35254;47.990;-1.608;2023-05-20T04:12:50;5.00;;;3.20;;
49378;SDS011;35254;47.990;-1.608;2023-05-20T04:15:16;6.07;;;3.42;;
49378;SDS011;35254;47.990;-1.608;2023-05-20T04:17:43;4.57;;;3.53;;
49378;SDS011;35254;47.990;-1.608;2023-05-20T04:20:12;5.53;;;3.28;;
49378;SDS011;35254;47.990;-1.608;2023-05-20T04:22:38;4.28;;;3.35;;
49378;SDS011;35254;47.990;-1.608;2023-05-20T04:25:04;4.88;;;3.20;;
49378;SDS011;35254;47.990;-1.608;2023-05-20T04:27:30;8.50;;;3.72;;
49378;SDS011;35254;47.990;-1.608;2023-05-20T04:29:57;9.65;;;3.72;;
49378;SDS011;35254;47.990;-1.608;2023-05-20T04:32:23;7.45;;;3.38;;
49378;SDS011;35254;47.990;-1.608;2023-05-20T04:34:49;7.53;;;3.95;;
49378;SDS011;35254;47.990;-1.608;2023-05-20T04:37:14;8.70;;;4.07;;
49378;SDS011;35254;47.990;-1.608;2023-05-20T04:39:40;5.53;;;3.42;;
49378;SDS011;35254;47.990;-1.608;2023-05-20T04:42:07;9.07;;;3.40;;
49378;SDS011;35254;47.990;-1.608;2023-05-20T04:44:33;6.32;;;3.35;;
49378;SDS011;35254;47.990;-1.608;2023-05-20T04:46:58;7.68;;;3.63;;
49378;SDS011;35254;47.990;-1.608;2023-05-20T04:49:24;7.75;;;3.40;;
49378;SDS011;35254;47.990;-1.608;2023-05-20T04:51:51;4.40;;;3.10;;
49378;SDS011;35254;47.990;-1.608;2023-05-20T04:54:16;5.03;;;3.72;;
49378;SDS011;35254;47.990;-1.608;2023-05-20T04:56:44;4.18;;;3.33;;
49378;SDS011;35254;47.990;-1.608;2023-05-20T04:59:10;6.43;;;3.75;;
49378;SDS011;35254;47.990;-1.608;2023-05-20T05:01:36;4.97;;;4.20;;
49378;SDS011;35254;47.990;-1.608;2023-05-20T05:04:02;7.18;;;4.38;;
49378;SDS011;35254;47.990;-1.608;2023-05-20T05:06:28;4.45;;;3.58;;
49378;SDS011;35254;47.990;-1.608;2023-05-20T05:08:53;7.65;;;3.40;;
49378;SDS011;35254;47.990;-1.608;2023-05-20T05:11:19;5.70;;;3.38;;
49378;SDS011;35254;47.990;-1.608;2023-05-20T05:13:45;6.78;;;4.28;;
49378;SDS011;35254;47.990;-1.608;2023-05-20T05:16:11;6.68;;;3.75;;
49378;SDS011;35254;47.990;-1.608;2023-05-20T05:18:36;4.45;;;3.63;;
49378;SDS011;35254;47.990;-1.608;2023-05-20T05:21:02;5.13;;;3.55;;
49378;SDS011;35254;47.990;-1.608;2023-05-20T05:23:29;5.38;;;3.90;;
49378;SDS011;35254;47.990;-1.608;2023-05-20T05:25:55;7.65;;;3.83;;
49378;SDS011;35254;47.990;-1.608;2023-05-20T05:28:21;7.80;;;5.05;;
49378;SDS011;35254;47.990;-1.608;2023-05-20T05:30:47;8.73;;;3.78;;
49378;SDS011;35254;47.990;-1.608;2023-05-20T05:33:13;6.68;;;3.95;;
49378;SDS011;35254;47.990;-1.608;2023-05-20T05:35:40;6.65;;;3.50;;
49378;SDS011;35254;47.990;-1.608;2023-05-20T05:38:06;8.13;;;4.20;;
49378;SDS011;35254;47.990;-1.608;2023-05-20T05:40:32;7.15;;;4.22;;
49378;SDS011;35254;47.990;-1.608;2023-05-20T05:42:58;7.13;;;3.90;;
49378;SDS011;35254;47.990;-1.608;2023-05-20T05:45:24;7.25;;;3.75;;
49378;SDS011;35254;47.990;-1.608;2023-05-20T05:47:49;6.30;;;3.90;;
49378;SDS011;35254;47.990;-1.608;2023-05-20T05:50:15;7.97;;;3.35;;
49378;SDS011;35254;47.990;-1.608;2023-05-20T05:52:41;6.88;;;4.18;;
49378;SDS011;35254;47.990;-1.608;2023-05-20T05:55:07;6.70;;;3.80;;
49378;SDS011;35254;47.990;-1.608;2023-05-20T05:57:34;5.25;;;3.38;;
49378;SDS011;35254;47.990;-1.608;2023-05-20T05:59:59;6.00;;;3.85;;
49378;SDS011;35254;47.990;-1.608;2023-05-20T06:02:25;5.13;;;3.40;;
49378;SDS011;35254;47.990;-1.608;2023-05-20T06:04:51;7.90;;;3.80;;
49378;SDS011;35254;47.990;-1.608;2023-05-20T06:07:16;5.72;;;3.88;;
49378;SDS011;35254;47.990;-1.608;2023-05-20T06:09:42;6.10;;;3.75;;
49378;SDS011;35254;47.990;-1.608;2023-05-20T06:12:08;6.18;;;3.53;;
49378;SDS011;35254;47.990;-1.608;2023-05-20T06:14:34;5.38;;;3.63;;
49378;SDS011;35254;47.990;-1.608;2023-05-20T06:17:00;4.97;;;4.20;;
49378;SDS011;35254;47.990;-1.608;2023-05-20T06:19:26;10.13;;;3.75;;
49378;SDS011;35254;47.990;-1.608;2023-05-20T06:21:52;4.20;;;3.40;;
49378;SDS011;35254;47.990;-1.608;2023-05-20T06:24:17;6.78;;;3.80;;
49378;SDS011;35254;47.990;-1.608;2023-05-20T06:26:43;10.70;;;4.00;;
49378;SDS011;35254;47.990;-1.608;2023-05-20T06:29:10;8.38;;;5.00;;
49378;SDS011;35254;47.990;-1.608;2023-05-20T06:31:36;7.70;;;3.70;;
49378;SDS011;35254;47.990;-1.608;2023-05-20T06:34:01;6.90;;;4.10;;
49378;SDS011;35254;47.990;-1.608;2023-05-20T06:36:27;4.70;;;3.75;;
49378;SDS011;35254;47.990;-1.608;2023-05-20T06:38:53;6.32;;;3.50;;
49378;SDS011;35254;47.990;-1.608;2023-05-20T06:41:18;9.50;;;4.55;;
49378;SDS011;35254;47.990;-1.608;2023-05-20T06:43:46;6.75;;;4.00;;
49378;SDS011;35254;47.990;-1.608;2023-05-20T06:46:12;9.18;;;3.83;;
49378;SDS011;35254;47.990;-1.608;2023-05-20T06:48:37;8.73;;;4.47;;
49378;SDS011;35254;47.990;-1.608;2023-05-20T06:51:05;7.57;;;4.05;;
49378;SDS011;35254;47.990;-1.608;2023-05-20T06:53:32;7.65;;;4.30;;
49378;SDS011;35254;47.990;-1.608;2023-05-20T06:55:58;6.75;;;4.05;;
49378;SDS011;35254;47.990;-1.608;2023-05-20T06:58:23;7.70;;;3.75;;
49378;SDS011;35254;47.990;-1.608;2023-05-20T07:00:49;9.30;;;4.38;;
49378;SDS011;35254;47.990;-1.608;2023-05-20T07:03:15;6.25;;;3.63;;
49378;SDS011;35254;47.990;-1.608;2023-05-20T07:05:40;8.10;;;3.90;;
49378;SDS011;35254;47.990;-1.608;2023-05-20T07:08:06;5.13;;;4.00;;
49378;SDS011;35254;47.990;-1.608;2023-05-20T07:10:32;9.55;;;4.15;;
49378;SDS011;35254;47.990;-1.608;2023-05-20T07:12:58;7.57;;;3.67;;
49378;SDS011;35254;47.990;-1.608;2023-05-20T07:15:24;10.30;;;4.03;;
49378;SDS011;35254;47.990;-1.608;2023-05-20T07:17:49;7.18;;;3.92;;
49378;SDS011;35254;47.990;-1.608;2023-05-20T07:20:15;7.65;;;4.10;;
49378;SDS011;35254;47.990;-1.608;2023-05-20T07:22:41;7.97;;;3.90;;
49378;SDS011;35254;47.990;-1.608;2023-05-20T07:25:08;5.50;;;3.97;;
49378;SDS011;35254;47.990;-1.608;2023-05-20T07:27:34;6.00;;;3.58;;
49378;SDS011;35254;47.990;-1.608;2023-05-20T07:30:00;12.05;;;4.00;;
49378;SDS011;35254;47.990;-1.608;2023-05-20T07:32:26;11.30;;;4.78;;
49378;SDS011;35254;47.990;-1.608;2023-05-20T07:34:51;7.25;;;3.75;;
49378;SDS011;35254;47.990;-1.608;2023-05-20T07:37:17;6.35;;;3.75;;
49378;SDS011;35254;47.990;-1.608;2023-05-20T07:39:43;9.98;;;4.10;;
49378;SDS011;35254;47.990;-1.608;2023-05-20T07:42:08;7.95;;;3.65;;
49378;SDS011;35254;47.990;-1.608;2023-05-20T07:44:34;8.07;;;4.45;;
49378;SDS011;35254;47.990;-1.608;2023-05-20T07:47:00;7.32;;;4.10;;
49378;SDS011;35254;47.990;-1.608;2023-05-20T07:49:26;11.10;;;3.35;;
49378;SDS011;35254;47.990;-1.608;2023-05-20T07:51:51;9.07;;;3.72;;
49378;SDS011;35254;47.990;-1.608;2023-05-20T07:54:17;7.03;;;3.92;;
49378;SDS011;35254;47.990;-1.608;2023-05-20T07:56:42;6.55;;;3.80;;
49378;SDS011;35254;47.990;-1.608;2023-05-20T07:59:08;12.48;;;3.90;;
49378;SDS011;35254;47.990;-1.608;2023-05-20T08:01:34;8.88;;;4.05;;
49378;SDS011;35254;47.990;-1.608;2023-05-20T08:04:00;6.22;;;3.83;;
49378;SDS011;35254;47.990;-1.608;2023-05-20T08:06:26;9.70;;;4.65;;
49378;SDS011;35254;47.990;-1.608;2023-05-20T08:08:51;8.52;;;3.70;;
49378;SDS011;35254;47.990;-1.608;2023-05-20T08:11:20;7.95;;;3.85;;
49378;SDS011;35254;47.990;-1.608;2023-05-20T08:13:46;5.97;;;3.15;;
49378;SDS011;35254;47.990;-1.608;2023-05-20T08:16:12;6.95;;;4.00;;
49378;SDS011;35254;47.990;-1.608;2023-05-20T08:18:38;10.85;;;3.47;;
49378;SDS011;35254;47.990;-1.608;2023-05-20T08:21:04;10.10;;;3.90;;
49378;SDS011;35254;47.990;-1.608;2023-05-20T08:23:33;12.10;;;4.78;;
49378;SDS011;35254;47.990;-1.608;2023-05-20T08:25:59;7.10;;;3.83;;
49378;SDS011;35254;47.990;-1.608;2023-05-20T08:28:26;6.45;;;3.75;;
49378;SDS011;35254;47.990;-1.608;2023-05-20T08:30:52;9.52;;;3.80;;
49378;SDS011;35254;47.990;-1.608;2023-05-20T08:33:18;6.40;;;4.13;;
49378;SDS011;35254;47.990;-1.608;2023-05-20T08:35:46;8.20;;;3.97;;
49378;SDS011;35254;47.990;-1.608;2023-05-20T08:38:11;8.57;;;3.80;;
49378;SDS011;35254;47.990;-1.608;2023-05-20T08:40:37;6.88;;;4.05;;
49378;SDS011;35254;47.990;-1.608;2023-05-20T08:43:03;4.93;;;3.70;;
49378;SDS011;35254;47.990;-1.608;2023-05-20T08:45:33;6.20;;;3.63;;
49378;SDS011;35254;47.990;-1.608;2023-05-20T08:48:01;7.05;;;3.17;;
49378;SDS011;35254;47.990;-1.608;2023-05-20T08:50:28;7.75;;;3.35;;
49378;SDS011;35254;47.990;-1.608;2023-05-20T08:52:54;9.57;;;4.72;;
49378;SDS011;35254;47.990;-1.608;2023-05-20T08:55:34;9.60;;;3.55;;
49378;SDS011;35254;47.990;-1.608;2023-05-20T08:58:06;9.00;;;4.22;;
49378;SDS011;35254;47.990;-1.608;2023-05-20T09:00:31;6.15;;;3.60;;
49378;SDS011;35254;47.990;-1.608;2023-05-20T09:02:57;9.27;;;3.60;;
49378;SDS011;35254;47.990;-1.608;2023-05-20T09:05:24;6.40;;;3.25;;
49378;SDS011;35254;47.990;-1.608;2023-05-20T09:07:50;7.68;;;4.00;;
49378;SDS011;35254;47.990;-1.608;2023-05-20T09:10:15;6.70;;;3.53;;
49378;SDS011;35254;47.990;-1.608;2023-05-20T09:12:41;12.65;;;3.25;;
49378;SDS011;35254;47.990;-1.608;2023-05-20T09:15:07;5.95;;;3.90;;
49378;SDS011;35254;47.990;-1.608;2023-05-20T09:17:36;6.57;;;3.10;;
49378;SDS011;35254;47.990;-1.608;2023-05-20T09:20:06;9.25;;;4.07;;
49378;SDS011;35254;47.990;-1.608;2023-05-20T09:22:33;5.85;;;3.83;;
49378;SDS011;35254;47.990;-1.608;2023-05-20T09:24:59;6.85;;;3.33;;
49378;SDS011;35254;47.990;-1.608;2023-05-20T09:27:25;7.05;;;3.00;;
49378;SDS011;35254;47.990;-1.608;2023-05-20T09:29:51;7.28;;;3.65;;
49378;SDS011;35254;47.990;-1.608;2023-05-20T09:32:17;7.13;;;3.15;;
49378;SDS011;35254;47.990;-1.608;2023-05-20T09:34:47;8.73;;;3.55;;
49378;SDS011;35254;47.990;-1.608;2023-05-20T09:37:13;5.55;;;3.45;;
49378;SDS011;35254;47.990;-1.608;2023-05-20T09:42:16;6.72;;;3.53;;
49378;SDS011;35254;47.990;-1.608;2023-05-20T09:44:45;4.63;;;3.08;;
49378;SDS011;35254;47.990;-1.608;2023-05-20T09:47:12;8.85;;;3.38;;
49378;SDS011;35254;47.990;-1.608;2023-05-20T09:49:39;4.80;;;2.95;;
49378;SDS011;35254;47.990;-1.608;2023-05-20T09:52:06;9.38;;;3.42;;
49378;SDS011;35254;47.990;-1.608;2023-05-20T09:54:33;7.05;;;3.83;;
49378;SDS011;35254;47.990;-1.608;2023-05-20T09:57:00;9.32;;;3.25;;
49378;SDS011;35254;47.990;-1.608;2023-05-20T09:59:27;6.97;;;3.00;;
49378;SDS011;35254;47.990;-1.608;2023-05-20T10:01:55;8.63;;;3.95;;
49378;SDS011;35254;47.990;-1.608;2023-05-20T10:04:21;7.28;;;3.30;;
49378;SDS011;35254;47.990;-1.608;2023-05-20T10:07:08;5.40;;;3.15;;
49378;SDS011;35254;47.990;-1.608;2023-05-20T10:15:50;6.75;;;3.72;;
49378;SDS011;35254;47.990;-1.608;2023-05-20T10:20:55;5.22;;;3.20;;
49378;SDS011;35254;47.990;-1.608;2023-05-20T10:25:51;4.65;;;2.97;;
49378;SDS011;35254;47.990;-1.608;2023-05-20T10:30:57;5.55;;;3.10;;
49378;SDS011;35254;47.990;-1.608;2023-05-20T10:33:24;9.18;;;3.42;;
49378;SDS011;35254;47.990;-1.608;2023-05-20T10:35:51;7.72;;;3.30;;
49378;SDS011;35254;47.990;-1.608;2023-05-20T10:38:18;5.95;;;3.10;;
49378;SDS011;35254;47.990;-1.608;2023-05-20T10:40:45;4.45;;;2.90;;
49378;SDS011;35254;47.990;-1.608;2023-05-20T10:43:15;4.93;;;2.97;;
49378;SDS011;35254;47.990;-1.608;2023-05-20T10:45:56;7.25;;;3.15;;
49378;SDS011;35254;47.990;-1.608;2023-05-20T10:48:23;5.47;;;2.60;;
49378;SDS011;35254;47.990;-1.608;2023-05-20T10:50:50;6.72;;;3.30;;
49378;SDS011;35254;47.990;-1.608;2023-05-20T10:53:20;6.70;;;3.15;;
49378;SDS011;35254;47.990;-1.608;2023-05-20T10:55:51;5.18;;;2.75;;
49378;SDS011;35254;47.990;-1.608;2023-05-20T10:58:19;7.30;;;3.10;;
49378;SDS011;35254;47.990;-1.608;2023-05-20T11:00:47;5.97;;;3.22;;
49378;SDS011;35254;47.990;-1.608;2023-05-20T11:03:15;8.10;;;3.13;;
49378;SDS011;35254;47.990;-1.608;2023-05-20T11:05:43;5.70;;;2.95;;
49378;SDS011;35254;47.990;-1.608;2023-05-20T11:08:10;5.35;;;3.10;;
49378;SDS011;35254;47.990;-1.608;2023-05-20T11:10:36;6.53;;;2.65;;
49378;SDS011;35254;47.990;-1.608;2023-05-20T11:13:02;9.77;;;3.42;;
49378;SDS011;35254;47.990;-1.608;2023-05-20T11:15:33;7.68;;;3.15;;
49378;SDS011;35254;47.990;-1.608;2023-05-20T11:18:01;7.13;;;2.65;;
49378;SDS011;35254;47.990;-1.608;2023-05-20T11:20:29;10.88;;;3.40;;
49378;SDS011;35254;47.990;-1.608;2023-05-20T11:22:58;6.72;;;3.13;;
49378;SDS011;35254;47.990;-1.608;2023-05-20T11:25:25;7.05;;;3.30;;
49378;SDS011;35254;47.990;-1.608;2023-05-20T11:27:52;9.70;;;3.10;;
49378;SDS011;35254;47.990;-1.608;2023-05-20T11:30:18;7.10;;;3.00;;
49378;SDS011;35254;47.990;-1.608;2023-05-20T11:33:00;8.75;;;3.13;;
49378;SDS011;35254;47.990;-1.608;2023-05-20T11:35:27;4.22;;;2.90;;
49378;SDS011;35254;47.990;-1.608;2023-05-20T11:38:02;7.18;;;2.70;;
49378;SDS011;35254;47.990;-1.608;2023-05-20T11:40:30;5.63;;;2.97;;
49378;SDS011;35254;47.990;-1.608;2023-05-20T11:42:58;4.97;;;3.10;;
49378;SDS011;35254;47.990;-1.608;2023-05-20T11:45:25;8.88;;;2.80;;
49378;SDS011;35254;47.990;-1.608;2023-05-20T11:48:00;9.15;;;3.60;;
49378;SDS011;35254;47.990;-1.608;2023-05-20T11:50:34;6.07;;;3.50;;
49378;SDS011;35254;47.990;-1.608;2023-05-20T11:53:04;7.40;;;3.00;;
49378;SDS011;35254;47.990;-1.608;2023-05-20T11:55:42;5.60;;;3.00;;
49378;SDS011;35254;47.990;-1.608;2023-05-20T11:58:09;5.30;;;3.10;;
49378;SDS011;35254;47.990;-1.608;2023-05-20T12:00:35;6.80;;;2.85;;
49378;SDS011;35254;47.990;-1.608;2023-05-20T12:03:01;4.50;;;2.60;;
49378;SDS011;35254;47.990;-1.608;2023-05-20T12:05:26;6.18;;;3.17;;
49378;SDS011;35254;47.990;-1.608;2023-05-20T12:07:52;8.25;;;2.95;;
49378;SDS011;35254;47.990;-1.608;2023-05-20T12:10:18;7.25;;;3.05;;
49378;SDS011;35254;47.990;-1.608;2023-05-20T12:12:43;6.55;;;4.07;;
49378;SDS011;35254;47.990;-1.608;2023-05-20T12:15:09;5.05;;;2.80;;
49378;SDS011;35254;47.990;-1.608;2023-05-20T12:17:48;5.70;;;2.97;;
49378;SDS011;35254;47.990;-1.608;2023-05-20T12:20:15;4.00;;;2.58;;
49378;SDS011;35254;47.990;-1.608;2023-05-20T12:22:43;5.50;;;2.97;;
49378;SDS011;35254;47.990;-1.608;2023-05-20T12:25:12;8.00;;;2.97;;
49378;SDS011;35254;47.990;-1.608;2023-05-20T12:27:39;8.77;;;3.10;;
49378;SDS011;35254;47.990;-1.608;2023-05-20T12:30:06;7.10;;;3.03;;
49378;SDS011;35254;47.990;-1.608;2023-05-20T12:32:33;4.70;;;3.05;;
49378;SDS011;35254;47.990;-1.608;2023-05-20T12:35:02;7.38;;;3.05;;
49378;SDS011;35254;47.990;-1.608;2023-05-20T12:37:28;5.15;;;2.80;;
49378;SDS011;35254;47.990;-1.608;2023-05-20T12:39:54;5.65;;;2.40;;
49378;SDS011;35254;47.990;-1.608;2023-05-20T12:42:20;5.70;;;2.97;;
49378;SDS011;35254;47.990;-1.608;2023-05-20T12:44:46;5.28;;;2.78;;
49378;SDS011;35254;47.990;-1.608;2023-05-20T12:47:11;5.90;;;3.25;;
49378;SDS011;35254;47.990;-1.608;2023-05-20T12:49:37;4.63;;;2.83;;
49378;SDS011;35254;47.990;-1.608;2023-05-20T12:52:03;6.47;;;3.20;;
49378;SDS011;35254;47.990;-1.608;2023-05-20T12:54:28;8.40;;;3.20;;
49378;SDS011;35254;47.990;-1.608;2023-05-20T12:56:54;6.28;;;2.72;;
49378;SDS011;35254;47.990;-1.608;2023-05-20T12:59:20;4.25;;;2.58;;
49378;SDS011;35254;47.990;-1.608;2023-05-20T13:01:45;5.85;;;2.90;;
49378;SDS011;35254;47.990;-1.608;2023-05-20T13:04:11;4.28;;;2.50;;
49378;SDS011;35254;47.990;-1.608;2023-05-20T13:06:37;5.22;;;2.50;;
49378;SDS011;35254;47.990;-1.608;2023-05-20T13:09:03;4.47;;;2.58;;
49378;SDS011;35254;47.990;-1.608;2023-05-20T13:11:28;5.38;;;2.53;;
49378;SDS011;35254;47.990;-1.608;2023-05-20T13:13:54;6.85;;;2.45;;
49378;SDS011;35254;47.990;-1.608;2023-05-20T13:16:23;5.35;;;3.10;;
49378;SDS011;35254;47.990;-1.608;2023-05-20T13:18:49;7.82;;;3.15;;
49378;SDS011;35254;47.990;-1.608;2023-05-20T13:21:15;5.22;;;2.70;;
49378;SDS011;35254;47.990;-1.608;2023-05-20T13:23:41;6.13;;;2.80;;
49378;SDS011;35254;47.990;-1.608;2023-05-20T13:26:07;6.10;;;2.80;;
49378;SDS011;35254;47.990;-1.608;2023-05-20T13:28:33;4.15;;;2.78;;
49378;SDS011;35254;47.990;-1.608;2023-05-20T13:31:01;7.57;;;2.70;;
49378;SDS011;35254;47.990;-1.608;2023-05-20T13:33:27;4.90;;;2.80;;
49378;SDS011;35254;47.990;-1.608;2023-05-20T13:35:53;4.82;;;2.65;;
49378;SDS011;35254;47.990;-1.608;2023-05-20T13:38:18;5.80;;;2.30;;
49378;SDS011;35254;47.990;-1.608;2023-05-20T13:40:44;8.95;;;2.40;;
49378;SDS011;35254;47.990;-1.608;2023-05-20T13:43:10;5.32;;;2.83;;
49378;SDS011;35254;47.990;-1.608;2023-05-20T13:45:35;4.72;;;2.53;;
49378;SDS011;35254;47.990;-1.608;2023-05-20T13:48:01;7.85;;;3.00;;
49378;SDS011;35254;47.990;-1.608;2023-05-20T13:50:27;8.93;;;3.08;;
49378;SDS011;35254;47.990;-1.608;2023-05-20T13:52:52;5.63;;;2.45;;
49378;SDS011;35254;47.990;-1.608;2023-05-20T13:55:18;7.38;;;2.97;;
49378;SDS011;35254;47.990;-1.608;2023-05-20T13:57:44;5.13;;;2.75;;
49378;SDS011;35254;47.990;-1.608;2023-05-20T14:00:10;3.53;;;2.50;;
49378;SDS011;35254;47.990;-1.608;2023-05-20T14:02:36;5.28;;;2.58;;
49378;SDS011;35254;47.990;-1.608;2023-05-20T14:05:01;5.55;;;2.33;;
49378;SDS011;35254;47.990;-1.608;2023-05-20T14:07:27;5.38;;;2.72;;
49378;SDS011;35254;47.990;-1.608;2023-05-20T14:09:53;7.03;;;2.72;;
49378;SDS011;35254;47.990;-1.608;2023-05-20T14:12:18;6.70;;;2.67;;
49378;SDS011;35254;47.990;-1.608;2023-05-20T14:14:44;5.13;;;2.88;;
49378;SDS011;35254;47.990;-1.608;2023-05-20T14:17:09;4.35;;;2.45;;
49378;SDS011;35254;47.990;-1.608;2023-05-20T14:19:35;6.90;;;3.13;;
49378;SDS011;35254;47.990;-1.608;2023-05-20T14:22:01;5.55;;;2.63;;
49378;SDS011;35254;47.990;-1.608;2023-05-20T14:24:27;4.18;;;2.40;;
49378;SDS011;35254;47.990;-1.608;2023-05-20T14:26:53;5.90;;;2.55;;
49378;SDS011;35254;47.990;-1.608;2023-05-20T14:29:19;8.27;;;2.72;;
49378;SDS011;35254;47.990;-1.608;2023-05-20T14:31:44;9.27;;;3.13;;
49378;SDS011;35254;47.990;-1.608;2023-05-20T14:34:10;4.57;;;2.67;;
49378;SDS011;35254;47.990;-1.608;2023-05-20T14:36:36;3.75;;;2.65;;
49378;SDS011;35254;47.990;-1.608;2023-05-20T14:39:02;5.78;;;2.47;;
49378;SDS011;35254;47.990;-1.608;2023-05-20T14:41:27;6.40;;;2.60;;
49378;SDS011;35254;47.990;-1.608;2023-05-20T14:43:53;2.75;;;2.53;;
49378;SDS011;35254;47.990;-1.608;2023-05-20T14:46:19;3.35;;;2.50;;